sensor_id;sensor_type;location;lat;lon;timestamp;pressure;altitude;pressure_sealevel;temperature;humidity
76424;BME280;65257;52.104;4.268;2023-03-01T00:01:20;103237.66;;;2.24;100.00
76424;BME280;65257;52.104;4.268;2023-03-01T00:03:46;103244.38;;;2.23;100.00
76424;BME280;65257;52.104;4.268;2023-03-01T00:06:13;103241.28;;;2.26;100.00
76424;BME280;65257;52.104;4.268;2023-03-01T00:08:39;103240.94;;;2.23;100.00
76424;BME280;65257;52.104;4.268;2023-03-01T00:11:06;103242.00;;;2.25;100.00
76424;BME280;65257;52.104;4.268;2023-03-01T00:13:34;103244.91;;;2.36;100.00
76424;BME280;65257;52.104;4.268;2023-03-01T00:16:08;103234.41;;;2.25;100.00
76424;BME280;65257;52.104;4.268;2023-03-01T00:18:34;103238.81;;;2.19;100.00
76424;BME280;65257;52.104;4.268;2023-03-01T00:21:01;103234.91;;;2.14;100.00
76424;BME280;65257;52.104;4.268;2023-03-01T00:23:27;103221.47;;;2.06;100.00
76424;BME280;65257;52.104;4.268;2023-03-01T00:25:53;103239.94;;;2.14;100.00
76424;BME280;65257;52.104;4.268;2023-03-01T00:28:19;103239.31;;;2.08;100.00
76424;BME280;65257;52.104;4.268;2023-03-01T00:30:45;103227.16;;;2.12;100.00
76424;BME280;65257;52.104;4.268;2023-03-01T00:33:11;103223.31;;;2.16;100.00
76424;BME280;65257;52.104;4.268;2023-03-01T00:35:37;103225.22;;;2.10;100.00
76424;BME280;65257;52.104;4.268;2023-03-01T00:38:02;103224.06;;;2.15;100.00
76424;BME280;65257;52.104;4.268;2023-03-01T00:40:32;103221.38;;;2.13;100.00
76424;BME280;65257;52.104;4.268;2023-03-01T00:42:58;103213.97;;;1.99;100.00
76424;BME280;65257;52.104;4.268;2023-03-01T00:45:24;103219.91;;;2.00;100.00
76424;BME280;65257;52.104;4.268;2023-03-01T00:47:50;103219.97;;;2.08;100.00
76424;BME280;65257;52.104;4.268;2023-03-01T00:50:18;103222.03;;;2.04;100.00
76424;BME280;65257;52.104;4.268;2023-03-01T00:52:44;103214.06;;;2.08;100.00
76424;BME280;65257;52.104;4.268;2023-03-01T00:55:10;103210.16;;;2.03;100.00
76424;BME280;65257;52.104;4.268;2023-03-01T00:57:36;103208.78;;;1.98;100.00
76424;BME280;65257;52.104;4.268;2023-03-01T01:00:04;103219.91;;;2.00;100.00
76424;BME280;65257;52.104;4.268;2023-03-01T01:02:31;103214.19;;;1.94;100.00
76424;BME280;65257;52.104;4.268;2023-03-01T01:04:56;103215.00;;;1.85;100.00
76424;BME280;65257;52.104;4.268;2023-03-01T01:07:22;103214.38;;;1.79;100.00
76424;BME280;65257;52.104;4.268;2023-03-01T01:09:47;103211.84;;;1.79;100.00
76424;BME280;65257;52.104;4.268;2023-03-01T01:12:13;103213.22;;;1.84;100.00
76424;BME280;65257;52.104;4.268;2023-03-01T01:14:38;103211.84;;;1.79;100.00
76424;BME280;65257;52.104;4.268;2023-03-01T01:17:04;103208.06;;;1.76;100.00
76424;BME280;65257;52.104;4.268;2023-03-01T01:19:30;103212.97;;;1.74;100.00
76424;BME280;65257;52.104;4.268;2023-03-01T01:21:55;103208.66;;;1.73;100.00
76424;BME280;65257;52.104;4.268;2023-03-01T01:24:21;103213.00;;;1.67;100.00
76424;BME280;65257;52.104;4.268;2023-03-01T01:26:46;103199.69;;;1.68;100.00
76424;BME280;65257;52.104;4.268;2023-03-01T01:29:13;103192.84;;;1.67;100.00
76424;BME280;65257;52.104;4.268;2023-03-01T01:31:41;103197.00;;;1.67;100.00
76424;BME280;65257;52.104;4.268;2023-03-01T01:34:08;103190.72;;;1.63;100.00
76424;BME280;65257;52.104;4.268;2023-03-01T01:36:37;103186.81;;;1.58;100.00
76424;BME280;65257;52.104;4.268;2023-03-01T01:39:03;103184.38;;;1.51;100.00
76424;BME280;65257;52.104;4.268;2023-03-01T01:41:29;103178.97;;;1.48;100.00
76424;BME280;65257;52.104;4.268;2023-03-01T01:44:20;103182.91;;;1.53;100.00
76424;BME280;65257;52.104;4.268;2023-03-01T01:46:54;103176.03;;;1.52;100.00
76424;BME280;65257;52.104;4.268;2023-03-01T01:49:32;103165.31;;;1.46;100.00
76424;BME280;65257;52.104;4.268;2023-03-01T01:52:35;103162.03;;;1.47;100.00
76424;BME280;65257;52.104;4.268;2023-03-01T01:57:37;103149.50;;;1.40;100.00
76424;BME280;65257;52.104;4.268;2023-03-01T02:00:18;103145.03;;;1.38;100.00
76424;BME280;65257;52.104;4.268;2023-03-01T02:02:45;103153.16;;;1.35;100.00
76424;BME280;65257;52.104;4.268;2023-03-01T02:05:31;103144.13;;;1.37;100.00
76424;BME280;65257;52.104;4.268;2023-03-01T02:07:58;103145.19;;;1.39;100.00
76424;BME280;65257;52.104;4.268;2023-03-01T02:10:24;103136.41;;;1.36;100.00
76424;BME280;65257;52.104;4.268;2023-03-01T02:12:51;103145.19;;;1.39;100.00
76424;BME280;65257;52.104;4.268;2023-03-01T02:15:17;103151.31;;;1.41;100.00
76424;BME280;65257;52.104;4.268;2023-03-01T02:17:43;103147.72;;;1.39;100.00
76424;BME280;65257;52.104;4.268;2023-03-01T02:20:25;103150.75;;;1.44;100.00
76424;BME280;65257;52.104;4.268;2023-03-01T02:22:53;103150.22;;;1.39;100.00
76424;BME280;65257;52.104;4.268;2023-03-01T02:28:33;103130.84;;;1.31;100.00
76424;BME280;65257;52.104;4.268;2023-03-01T02:31:00;103133.94;;;1.28;100.00
76424;BME280;65257;52.104;4.268;2023-03-01T02:33:45;103134.19;;;1.23;100.00
76424;BME280;65257;52.104;4.268;2023-03-01T02:36:20;103133.09;;;1.21;100.00
76424;BME280;65257;52.104;4.268;2023-03-01T02:38:48;103135.63;;;1.21;100.00
76424;BME280;65257;52.104;4.268;2023-03-01T02:41:17;103137.31;;;1.13;100.00
76424;BME280;65257;52.104;4.268;2023-03-01T02:43:44;103135.69;;;1.14;100.00
76424;BME280;65257;52.104;4.268;2023-03-01T02:46:21;103140.91;;;1.15;100.00
76424;BME280;65257;52.104;4.268;2023-03-01T02:48:52;103135.53;;;1.12;100.00
76424;BME280;65257;52.104;4.268;2023-03-01T02:54:18;103119.09;;;1.16;100.00
76424;BME280;65257;52.104;4.268;2023-03-01T02:56:47;103110.91;;;1.10;100.00
76424;BME280;65257;52.104;4.268;2023-03-01T02:59:14;103108.03;;;1.07;100.00
76424;BME280;65257;52.104;4.268;2023-03-01T03:01:40;103115.03;;;1.09;100.00
76424;BME280;65257;52.104;4.268;2023-03-01T03:04:09;103123.66;;;1.11;100.00
76424;BME280;65257;52.104;4.268;2023-03-01T03:06:35;103111.63;;;1.09;100.00
76424;BME280;65257;52.104;4.268;2023-03-01T03:09:00;103111.13;;;1.04;100.00
76424;BME280;65257;52.104;4.268;2023-03-01T03:11:26;103104.47;;;1.05;100.00
76424;BME280;65257;52.104;4.268;2023-03-01T03:13:52;103112.19;;;1.06;100.00
76424;BME280;65257;52.104;4.268;2023-03-01T03:16:18;103109.09;;;1.09;100.00
76424;BME280;65257;52.104;4.268;2023-03-01T03:18:43;103096.91;;;1.05;100.00
76424;BME280;65257;52.104;4.268;2023-03-01T03:21:11;103098.03;;;1.00;100.00
76424;BME280;65257;52.104;4.268;2023-03-01T03:23:37;103096.94;;;0.98;100.00
76424;BME280;65257;52.104;4.268;2023-03-01T03:26:04;103092.25;;;1.01;100.00
76424;BME280;65257;52.104;4.268;2023-03-01T03:28:31;103085.81;;;0.96;100.00
76424;BME280;65257;52.104;4.268;2023-03-01T03:30:56;103088.31;;;0.96;100.00
76424;BME280;65257;52.104;4.268;2023-03-01T03:33:23;103084.81;;;0.87;100.00
76424;BME280;65257;52.104;4.268;2023-03-01T03:35:50;103090.97;;;0.82;100.00
76424;BME280;65257;52.104;4.268;2023-03-01T03:38:17;103085.38;;;0.84;100.00
76424;BME280;65257;52.104;4.268;2023-03-01T03:41:05;103088.19;;;0.72;100.00
76424;BME280;65257;52.104;4.268;2023-03-01T03:43:33;103091.41;;;0.71;100.00
76424;BME280;65257;52.104;4.268;2023-03-01T03:46:00;103085.31;;;0.69;100.00
76424;BME280;65257;52.104;4.268;2023-03-01T03:48:32;103090.84;;;0.73;100.00
76424;BME280;65257;52.104;4.268;2023-03-01T03:50:58;103094.84;;;0.71;100.00
76424;BME280;65257;52.104;4.268;2023-03-01T03:53:24;103087.84;;;0.69;100.00
76424;BME280;65257;52.104;4.268;2023-03-01T03:55:50;103081.19;;;0.69;100.00
76424;BME280;65257;52.104;4.268;2023-03-01T03:58:18;103090.28;;;0.76;100.00
76424;BME280;65257;52.104;4.268;2023-03-01T04:00:46;103082.03;;;0.77;100.00
76424;BME280;65257;52.104;4.268;2023-03-01T04:03:14;103080.22;;;0.76;100.00
76424;BME280;65257;52.104;4.268;2023-03-01T04:05:40;103084.34;;;0.75;100.00
76424;BME280;65257;52.104;4.268;2023-03-01T04:08:06;103085.88;;;0.66;100.00
76424;BME280;65257;52.104;4.268;2023-03-01T04:10:46;103084.56;;;0.70;100.00
76424;BME280;65257;52.104;4.268;2023-03-01T04:13:15;103083.06;;;0.56;100.00
76424;BME280;65257;52.104;4.268;2023-03-01T04:15:41;103082.88;;;0.54;100.00
76424;BME280;65257;52.104;4.268;2023-03-01T04:18:09;103080.41;;;0.47;100.00
76424;BME280;65257;52.104;4.268;2023-03-01T04:20:37;103087.91;;;0.54;100.00
76424;BME280;65257;52.104;4.268;2023-03-01T04:23:14;103087.25;;;0.48;100.00
76424;BME280;65257;52.104;4.268;2023-03-01T04:25:53;103074.69;;;0.41;100.00
76424;BME280;65257;52.104;4.268;2023-03-01T04:28:25;103072.53;;;0.44;100.00
76424;BME280;65257;52.104;4.268;2023-03-01T04:30:51;103070.34;;;0.47;100.00
76424;BME280;65257;52.104;4.268;2023-03-01T04:33:17;103073.47;;;0.38;100.00
76424;BME280;65257;52.104;4.268;2023-03-01T04:35:42;103067.53;;;0.37;100.00
76424;BME280;65257;52.104;4.268;2023-03-01T04:38:08;103063.84;;;0.49;100.00
76424;BME280;65257;52.104;4.268;2023-03-01T04:40:34;103075.81;;;0.36;100.00
76424;BME280;65257;52.104;4.268;2023-03-01T04:42:59;103075.03;;;0.44;100.00
76424;BME280;65257;52.104;4.268;2023-03-01T04:45:25;103060.41;;;0.56;100.00
76424;BME280;65257;52.104;4.268;2023-03-01T04:47:50;103060.63;;;0.73;100.00
76424;BME280;65257;52.104;4.268;2023-03-01T04:50:18;103052.91;;;0.72;100.00
76424;BME280;65257;52.104;4.268;2023-03-01T04:52:46;103052.50;;;0.76;100.00
76424;BME280;65257;52.104;4.268;2023-03-01T04:55:12;103047.63;;;0.77;100.00
76424;BME280;65257;52.104;4.268;2023-03-01T04:57:37;103044.41;;;0.78;100.00
76424;BME280;65257;52.104;4.268;2023-03-01T05:00:04;103043.84;;;0.81;100.00
76424;BME280;65257;52.104;4.268;2023-03-01T05:02:46;103040.31;;;0.72;100.00
76424;BME280;65257;52.104;4.268;2023-03-01T05:05:11;103035.09;;;0.70;100.00
76424;BME280;65257;52.104;4.268;2023-03-01T05:07:38;103037.81;;;0.72;100.00
76424;BME280;65257;52.104;4.268;2023-03-01T05:10:03;103029.16;;;0.70;100.00
76424;BME280;65257;52.104;4.268;2023-03-01T05:12:29;103033.63;;;0.72;100.00
76424;BME280;65257;52.104;4.268;2023-03-01T05:14:54;103037.47;;;0.69;100.00
76424;BME280;65257;52.104;4.268;2023-03-01T05:17:19;103033.47;;;0.71;100.00
76424;BME280;65257;52.104;4.268;2023-03-01T05:19:46;103030.41;;;0.73;100.00
76424;BME280;65257;52.104;4.268;2023-03-01T05:22:11;103039.25;;;0.70;100.00
76424;BME280;65257;52.104;4.268;2023-03-01T05:24:36;103037.84;;;0.64;100.00
76424;BME280;65257;52.104;4.268;2023-03-01T05:27:03;103030.41;;;0.73;100.00
76424;BME280;65257;52.104;4.268;2023-03-01T05:29:30;103030.00;;;0.77;100.00
76424;BME280;65257;52.104;4.268;2023-03-01T05:31:59;103027.72;;;0.72;100.00
76424;BME280;65257;52.104;4.268;2023-03-01T05:34:28;103024.59;;;0.58;100.00
76424;BME280;65257;52.104;4.268;2023-03-01T05:36:54;103021.13;;;0.65;100.00
76424;BME280;65257;52.104;4.268;2023-03-01T05:39:21;103019.09;;;0.70;100.00
76424;BME280;65257;52.104;4.268;2023-03-01T05:41:48;103019.22;;;0.78;100.00
76424;BME280;65257;52.104;4.268;2023-03-01T05:44:14;103017.25;;;0.76;100.00
76424;BME280;65257;52.104;4.268;2023-03-01T05:46:40;103015.06;;;0.79;100.00
76424;BME280;65257;52.104;4.268;2023-03-01T05:49:05;103012.66;;;0.64;100.00
76424;BME280;65257;52.104;4.268;2023-03-01T05:51:31;103000.97;;;0.65;100.00
76424;BME280;65257;52.104;4.268;2023-03-01T05:53:57;103003.56;;;0.58;100.00
76424;BME280;65257;52.104;4.268;2023-03-01T05:56:22;103001.75;;;0.34;100.00
76424;BME280;65257;52.104;4.268;2023-03-01T05:58:48;103009.16;;;0.33;100.00
76424;BME280;65257;52.104;4.268;2023-03-01T06:01:14;103004.34;;;0.27;100.00
76424;BME280;65257;52.104;4.268;2023-03-01T06:03:40;103007.78;;;0.21;100.00
76424;BME280;65257;52.104;4.268;2023-03-01T06:06:05;103009.03;;;0.24;100.00
76424;BME280;65257;52.104;4.268;2023-03-01T06:08:31;103004.69;;;0.23;100.00
76424;BME280;65257;52.104;4.268;2023-03-01T06:10:56;102998.81;;;0.16;100.00
76424;BME280;65257;52.104;4.268;2023-03-01T06:13:23;103001.59;;;0.10;100.00
76424;BME280;65257;52.104;4.268;2023-03-01T06:15:48;103004.53;;;-0.01;100.00
76424;BME280;65257;52.104;4.268;2023-03-01T06:18:14;103003.47;;;-0.10;100.00
76424;BME280;65257;52.104;4.268;2023-03-01T06:20:39;102994.09;;;-0.04;100.00
76424;BME280;65257;52.104;4.268;2023-03-01T06:23:05;103002.75;;;-0.09;100.00
76424;BME280;65257;52.104;4.268;2023-03-01T06:25:30;103009.19;;;-0.04;100.00
76424;BME280;65257;52.104;4.268;2023-03-01T06:27:56;103007.53;;;0.04;100.00
76424;BME280;65257;52.104;4.268;2023-03-01T06:30:23;103009.50;;;0.06;100.00
76424;BME280;65257;52.104;4.268;2023-03-01T06:32:49;103011.47;;;0.09;100.00
76424;BME280;65257;52.104;4.268;2023-03-01T06:35:15;103005.53;;;0.08;100.00
76424;BME280;65257;52.104;4.268;2023-03-01T06:37:45;103005.53;;;0.08;100.00
76424;BME280;65257;52.104;4.268;2023-03-01T06:40:11;103005.53;;;0.08;100.00
76424;BME280;65257;52.104;4.268;2023-03-01T06:42:43;103009.13;;;0.10;100.00
76424;BME280;65257;52.104;4.268;2023-03-01T06:45:09;103000.50;;;0.08;100.00
76424;BME280;65257;52.104;4.268;2023-03-01T06:47:35;102996.00;;;0.06;100.00
76424;BME280;65257;52.104;4.268;2023-03-01T06:50:01;103006.63;;;0.03;100.00
76424;BME280;65257;52.104;4.268;2023-03-01T06:52:26;103008.44;;;0.04;100.00
76424;BME280;65257;52.104;4.268;2023-03-01T06:54:52;103014.81;;;0.16;100.00
76424;BME280;65257;52.104;4.268;2023-03-01T06:57:18;103002.78;;;0.43;100.00
76424;BME280;65257;52.104;4.268;2023-03-01T06:59:43;103006.00;;;0.42;100.00
76424;BME280;65257;52.104;4.268;2023-03-01T07:02:12;103007.69;;;0.57;100.00
76424;BME280;65257;52.104;4.268;2023-03-01T07:04:38;103010.69;;;0.62;100.00
76424;BME280;65257;52.104;4.268;2023-03-01T07:07:04;103008.38;;;0.63;100.00
76424;BME280;65257;52.104;4.268;2023-03-01T07:09:29;103011.59;;;0.62;100.00
76424;BME280;65257;52.104;4.268;2023-03-01T07:11:55;103006.22;;;0.59;100.00
76424;BME280;65257;52.104;4.268;2023-03-01T07:14:21;103003.53;;;0.81;100.00
76424;BME280;65257;52.104;4.268;2023-03-01T07:16:46;103005.41;;;0.90;100.00
76424;BME280;65257;52.104;4.268;2023-03-01T07:19:12;103002.50;;;0.94;100.00
76424;BME280;65257;52.104;4.268;2023-03-01T07:21:37;103002.28;;;1.00;100.00
76424;BME280;65257;52.104;4.268;2023-03-01T07:24:06;102998.22;;;1.09;100.00
76424;BME280;65257;52.104;4.268;2023-03-01T07:26:32;103004.88;;;1.24;100.00
76424;BME280;65257;52.104;4.268;2023-03-01T07:29:01;103009.59;;;1.21;100.00
76424;BME280;65257;52.104;4.268;2023-03-01T07:31:26;103000.66;;;1.16;100.00
76424;BME280;65257;52.104;4.268;2023-03-01T07:33:56;103001.97;;;1.28;100.00
76424;BME280;65257;52.104;4.268;2023-03-01T07:36:24;103002.78;;;1.51;100.00
76424;BME280;65257;52.104;4.268;2023-03-01T07:38:50;103003.00;;;1.77;100.00
76424;BME280;65257;52.104;4.268;2023-03-01T07:41:17;102998.72;;;2.00;100.00
76424;BME280;65257;52.104;4.268;2023-03-01T07:43:42;102995.44;;;2.25;100.00
76424;BME280;65257;52.104;4.268;2023-03-01T07:46:08;102994.59;;;2.33;100.00
76424;BME280;65257;52.104;4.268;2023-03-01T07:48:34;103005.16;;;2.38;100.00
76424;BME280;65257;52.104;4.268;2023-03-01T07:51:05;102997.91;;;2.17;100.00
76424;BME280;65257;52.104;4.268;2023-03-01T07:53:32;103003.41;;;2.13;100.00
76424;BME280;65257;52.104;4.268;2023-03-01T07:56:11;102994.91;;;2.12;100.00
76424;BME280;65257;52.104;4.268;2023-03-01T07:58:39;103002.13;;;2.25;100.00
76424;BME280;65257;52.104;4.268;2023-03-01T08:01:06;102998.63;;;2.40;100.00
76424;BME280;65257;52.104;4.268;2023-03-01T08:03:33;102998.69;;;2.48;100.00
76424;BME280;65257;52.104;4.268;2023-03-01T08:06:00;102993.97;;;3.18;100.00
76424;BME280;65257;52.104;4.268;2023-03-01T08:08:25;102991.00;;;4.53;100.00
76424;BME280;65257;52.104;4.268;2023-03-01T08:10:51;102990.53;;;5.38;100.00
76424;BME280;65257;52.104;4.268;2023-03-01T08:13:16;102982.84;;;6.32;100.00
76424;BME280;65257;52.104;4.268;2023-03-01T08:15:47;102979.75;;;6.84;100.00
76424;BME280;65257;52.104;4.268;2023-03-01T08:18:12;102970.34;;;7.44;100.00
76424;BME280;65257;52.104;4.268;2023-03-01T08:20:38;102978.41;;;7.80;100.00
76424;BME280;65257;52.104;4.268;2023-03-01T08:23:03;102972.50;;;8.33;100.00
76424;BME280;65257;52.104;4.268;2023-03-01T08:25:28;102974.25;;;8.02;100.00
76424;BME280;65257;52.104;4.268;2023-03-01T08:27:54;102966.44;;;8.43;100.00
76424;BME280;65257;52.104;4.268;2023-03-01T08:30:19;102972.63;;;8.25;100.00
76424;BME280;65257;52.104;4.268;2023-03-01T08:32:45;102966.84;;;8.59;100.00
76424;BME280;65257;52.104;4.268;2023-03-01T08:35:11;102970.72;;;9.09;100.00
76424;BME280;65257;52.104;4.268;2023-03-01T08:37:36;102967.97;;;9.29;99.38
76424;BME280;65257;52.104;4.268;2023-03-01T08:40:01;102965.28;;;9.27;96.50
76424;BME280;65257;52.104;4.268;2023-03-01T08:42:28;102958.69;;;9.53;92.84
76424;BME280;65257;52.104;4.268;2023-03-01T08:44:55;102963.53;;;9.26;92.41
76424;BME280;65257;52.104;4.268;2023-03-01T08:47:21;102959.00;;;9.57;92.19
76424;BME280;65257;52.104;4.268;2023-03-01T08:49:50;102951.56;;;9.72;89.80
76424;BME280;65257;52.104;4.268;2023-03-01T08:52:16;102954.00;;;9.59;88.64
76424;BME280;65257;52.104;4.268;2023-03-01T08:54:41;102947.13;;;9.58;88.45
76424;BME280;65257;52.104;4.268;2023-03-01T08:57:06;102957.75;;;10.10;88.39
76424;BME280;65257;52.104;4.268;2023-03-01T08:59:32;102959.91;;;10.52;84.12
76424;BME280;65257;52.104;4.268;2023-03-01T09:02:03;102972.63;;;10.27;82.32
76424;BME280;65257;52.104;4.268;2023-03-01T09:04:28;102973.06;;;10.33;82.39
76424;BME280;65257;52.104;4.268;2023-03-01T09:06:53;102972.31;;;10.84;79.34
76424;BME280;65257;52.104;4.268;2023-03-01T09:09:19;102973.28;;;10.73;81.15
76424;BME280;65257;52.104;4.268;2023-03-01T09:11:45;102965.03;;;10.52;82.08
76424;BME280;65257;52.104;4.268;2023-03-01T09:14:12;102971.31;;;10.32;79.09
76424;BME280;65257;52.104;4.268;2023-03-01T09:16:38;102962.47;;;10.40;78.30
76424;BME280;65257;52.104;4.268;2023-03-01T09:19:05;102962.75;;;10.68;78.74
76424;BME280;65257;52.104;4.268;2023-03-01T09:21:31;102968.63;;;10.92;79.63
76424;BME280;65257;52.104;4.268;2023-03-01T09:23:57;102971.66;;;10.61;78.55
76424;BME280;65257;52.104;4.268;2023-03-01T09:26:24;102958.28;;;11.41;75.06
76424;BME280;65257;52.104;4.268;2023-03-01T09:28:52;102966.81;;;11.92;73.26
76424;BME280;65257;52.104;4.268;2023-03-01T09:31:20;102959.81;;;12.44;71.07
76424;BME280;65257;52.104;4.268;2023-03-01T09:33:47;102956.69;;;12.35;71.73
76424;BME280;65257;52.104;4.268;2023-03-01T09:36:16;102960.44;;;11.86;71.86
76424;BME280;65257;52.104;4.268;2023-03-01T09:38:42;102954.69;;;11.13;73.88
76424;BME280;65257;52.104;4.268;2023-03-01T09:43:51;102955.75;;;11.54;73.10
76424;BME280;65257;52.104;4.268;2023-03-01T09:46:23;102945.56;;;12.21;70.25
76424;BME280;65257;52.104;4.268;2023-03-01T09:48:57;102941.41;;;12.51;70.07
76424;BME280;65257;52.104;4.268;2023-03-01T09:51:33;102938.75;;;12.77;69.44
76424;BME280;65257;52.104;4.268;2023-03-01T09:54:01;102947.13;;;12.60;67.94
76424;BME280;65257;52.104;4.268;2023-03-01T09:59:29;102936.09;;;12.48;66.50
76424;BME280;65257;52.104;4.268;2023-03-01T10:09:57;102921.53;;;12.34;64.39
76424;BME280;65257;52.104;4.268;2023-03-01T10:12:27;102917.09;;;13.45;63.75
76424;BME280;65257;52.104;4.268;2023-03-01T10:14:59;102913.53;;;13.58;61.49
76424;BME280;65257;52.104;4.268;2023-03-01T10:19:55;102912.59;;;14.33;57.50
76424;BME280;65257;52.104;4.268;2023-03-01T10:22:24;102904.78;;;13.25;56.12
76424;BME280;65257;52.104;4.268;2023-03-01T10:24:54;102911.22;;;12.89;55.56
76424;BME280;65257;52.104;4.268;2023-03-01T10:27:25;102907.72;;;12.60;53.85
76424;BME280;65257;52.104;4.268;2023-03-01T10:30:34;102910.09;;;12.29;53.26
76424;BME280;65257;52.104;4.268;2023-03-01T10:33:01;102902.66;;;12.61;48.97
76424;BME280;65257;52.104;4.268;2023-03-01T10:35:28;102903.97;;;11.99;49.36
76424;BME280;65257;52.104;4.268;2023-03-01T10:38:11;102892.38;;;12.46;47.95
76424;BME280;65257;52.104;4.268;2023-03-01T10:40:53;102896.69;;;12.20;46.39
76424;BME280;65257;52.104;4.268;2023-03-01T10:43:20;102883.66;;;12.30;44.24
76424;BME280;65257;52.104;4.268;2023-03-01T10:45:46;102880.56;;;12.78;42.63
76424;BME280;65257;52.104;4.268;2023-03-01T10:50:49;102869.59;;;13.24;39.85
76424;BME280;65257;52.104;4.268;2023-03-01T10:53:24;102873.81;;;12.80;41.37
76424;BME280;65257;52.104;4.268;2023-03-01T10:56:09;102865.06;;;12.34;41.89
76424;BME280;65257;52.104;4.268;2023-03-01T10:58:39;102864.56;;;12.54;39.76
76424;BME280;65257;52.104;4.268;2023-03-01T11:03:39;102869.03;;;12.71;36.96
76424;BME280;65257;52.104;4.268;2023-03-01T11:06:12;102880.25;;;12.16;49.38
76424;BME280;65257;52.104;4.268;2023-03-01T11:08:47;102874.78;;;11.84;46.56
76424;BME280;65257;52.104;4.268;2023-03-01T11:11:18;102864.97;;;12.89;36.52
76424;BME280;65257;52.104;4.268;2023-03-01T11:13:54;102860.06;;;11.94;37.17
76424;BME280;65257;52.104;4.268;2023-03-01T11:16:29;102852.19;;;12.76;35.36
76424;BME280;65257;52.104;4.268;2023-03-01T11:19:21;102854.16;;;12.66;33.51
76424;BME280;65257;52.104;4.268;2023-03-01T11:27:16;102859.50;;;12.41;41.67
76424;BME280;65257;52.104;4.268;2023-03-01T11:29:45;102845.63;;;12.67;35.92
76424;BME280;65257;52.104;4.268;2023-03-01T11:32:13;102839.78;;;12.40;36.53
76424;BME280;65257;52.104;4.268;2023-03-01T11:35:03;102834.75;;;12.85;36.41
76424;BME280;65257;52.104;4.268;2023-03-01T11:37:41;102837.66;;;12.62;35.84
76424;BME280;65257;52.104;4.268;2023-03-01T11:45:14;102830.56;;;12.43;46.48
76424;BME280;65257;52.104;4.268;2023-03-01T11:50:29;102828.63;;;11.84;55.07
76424;BME280;65257;52.104;4.268;2023-03-01T11:53:04;102826.31;;;12.58;47.55
76424;BME280;65257;52.104;4.268;2023-03-01T11:55:52;102818.09;;;12.35;52.01
76424;BME280;65257;52.104;4.268;2023-03-01T12:25:25;102779.75;;;12.82;39.25
76424;BME280;65257;52.104;4.268;2023-03-01T12:49:54;102746.41;;;11.96;43.67
76424;BME280;65257;52.104;4.268;2023-03-01T12:55:33;102735.63;;;12.74;36.11
76424;BME280;65257;52.104;4.268;2023-03-01T13:06:41;102731.94;;;12.54;34.31
76424;BME280;65257;52.104;4.268;2023-03-01T13:09:33;102731.34;;;12.89;34.13
76424;BME280;65257;52.104;4.268;2023-03-01T13:11:59;102729.78;;;12.91;34.35
76424;BME280;65257;52.104;4.268;2023-03-01T13:16:51;102729.38;;;12.25;36.84
76424;BME280;65257;52.104;4.268;2023-03-01T13:19:19;102724.00;;;11.65;37.95
76424;BME280;65257;52.104;4.268;2023-03-01T13:21:47;102716.13;;;11.75;39.01
76424;BME280;65257;52.104;4.268;2023-03-01T13:24:41;102716.63;;;11.70;40.32
76424;BME280;65257;52.104;4.268;2023-03-01T13:29:48;102708.41;;;11.48;41.69
76424;BME280;65257;52.104;4.268;2023-03-01T13:32:34;102713.13;;;11.42;41.64
76424;BME280;65257;52.104;4.268;2023-03-01T13:40:58;102711.34;;;11.41;39.64
76424;BME280;65257;52.104;4.268;2023-03-01T13:43:35;102705.44;;;10.88;41.84
76424;BME280;65257;52.104;4.268;2023-03-01T13:46:07;102701.09;;;11.00;41.65
76424;BME280;65257;52.104;4.268;2023-03-01T13:51:51;102688.50;;;10.90;41.31
76424;BME280;65257;52.104;4.268;2023-03-01T13:54:33;102687.94;;;10.81;39.41
76424;BME280;65257;52.104;4.268;2023-03-01T13:57:00;102677.06;;;10.98;40.42
76424;BME280;65257;52.104;4.268;2023-03-01T13:59:26;102672.13;;;11.01;40.42
76424;BME280;65257;52.104;4.268;2023-03-01T14:01:53;102663.31;;;11.23;38.04
76424;BME280;65257;52.104;4.268;2023-03-01T14:04:24;102670.16;;;10.97;40.25
76424;BME280;65257;52.104;4.268;2023-03-01T14:06:50;102666.47;;;10.65;41.30
76424;BME280;65257;52.104;4.268;2023-03-01T14:09:20;102663.31;;;10.69;41.48
76424;BME280;65257;52.104;4.268;2023-03-01T14:20:19;102634.91;;;9.38;47.79
76424;BME280;65257;52.104;4.268;2023-03-01T14:22:45;102644.53;;;9.42;49.50
76424;BME280;65257;52.104;4.268;2023-03-01T14:25:34;102648.31;;;9.11;49.90
76424;BME280;65257;52.104;4.268;2023-03-01T14:30:46;102640.16;;;8.92;52.25
76424;BME280;65257;52.104;4.268;2023-03-01T14:33:31;102639.19;;;8.67;53.86
76424;BME280;65257;52.104;4.268;2023-03-01T14:36:07;102628.28;;;8.81;54.39
76424;BME280;65257;52.104;4.268;2023-03-01T14:41:12;102616.88;;;8.53;55.22
76424;BME280;65257;52.104;4.268;2023-03-01T14:43:43;102620.13;;;8.39;55.87
76424;BME280;65257;52.104;4.268;2023-03-01T14:46:21;102614.34;;;8.30;55.92
76424;BME280;65257;52.104;4.268;2023-03-01T14:48:54;102607.81;;;8.22;56.13
76424;BME280;65257;52.104;4.268;2023-03-01T14:51:21;102608.56;;;8.20;57.09
76424;BME280;65257;52.104;4.268;2023-03-01T14:53:47;102612.31;;;8.02;57.80
76424;BME280;65257;52.104;4.268;2023-03-01T14:56:14;102600.34;;;8.01;55.80
76424;BME280;65257;52.104;4.268;2023-03-01T14:58:40;102601.56;;;8.06;55.55
76424;BME280;65257;52.104;4.268;2023-03-01T15:01:07;102604.75;;;7.92;55.91
76424;BME280;65257;52.104;4.268;2023-03-01T15:03:40;102590.81;;;7.87;57.06
76424;BME280;65257;52.104;4.268;2023-03-01T15:06:09;102584.34;;;7.69;58.02
76424;BME280;65257;52.104;4.268;2023-03-01T15:08:42;102592.78;;;7.91;58.34
76424;BME280;65257;52.104;4.268;2023-03-01T15:13:44;102598.91;;;7.60;58.02